Leyburn, United Kingdom
Current Conditions -  °F | °C
As of 9:50 AM on Saturday 25 Oct 2014 (Local Time) from EGXE Reporting Station
Broken Clouds Broken Clouds  
Wind Chill: 50°   Ceiling: 4500
Heat Index: 50°   Visibility: 6mi
Dew Point: 45°   Wind: 13mph
Humidity: 82%   Direction: 160°SSE
Pressure: 29.85"   Gusts: NA
Location:  54.31°N, 1.83°W
Report Text: EGXE 250850Z AUTO 16011KT 9999 BKN045/// 10/07 Q1011
Loading
Personal Weather Stations






























Interactive Weather Map
Tropical Storm Tracking
New forecast layout! Learn more

10-Day Weather Forecast

Advertisements
Track Severe Weather on mobile